Terminal Aerodrome Forecast
Issued by NWS

Home | Current Version | Previous Version | Text Only | Print | Product List | Glossary On
Versions: 1 2 3 4 5 6 7 8 9 10 11 12
836
FTUS42 KMLB 212347
TAFSUA
TAF
KSUA 212347Z 2200/2224 10013G21KT P6SM VCSH SCT025 BKN035
     FM220600 08012KT P6SM VCSH SCT015 BKN025
     FM221300 11013G19KT P6SM VCSH SCT025 BKN035
     FM221800 11017G24KT P6SM VCTS SCT020CB BKN040=

USA.gov is the U.S. government's official web portal to all federal, state and local government web resources and services.